Time;durP1;ratioP1;P1;durP2;ratioP2;P2;SDS_P1;SDS_P2;PMS_P1;PMS_P2;Temp;Humidity;BMP_temperature;BMP_pressure;BME280_temperature;BME280_humidity;BME280_pressure;Samples;Min_cycle;Max_cycle;Signal;HPM_P1;HPM_P2
2022/08/17 00:01:21;;;;;;;;;;;;;;;18.81;100.00;98785.05;1633805;86;20193;-81
2022/08/17 00:03:57;;;;;;;;;;;;;;;18.82;100.00;98788.63;1636473;86;20485;-82
2022/08/17 00:06:24;;;;;;;;;;;;;;;18.83;100.00;98793.80;1642465;86;20163;-81
2022/08/17 00:08:55;;;;;;;;;;;;;;;18.83;100.00;98788.23;1661966;86;21075;-82
2022/08/17 00:11:31;;;;;;;;;;;;;;;18.86;100.00;98790.23;1663149;86;20512;-82
2022/08/17 00:14:01;;;;;;;;;;;;;;;18.86;100.00;98788.84;1661213;86;20154;-82
2022/08/17 00:16:38;;;;;;;;;;;;;;;18.86;100.00;98784.67;1665420;86;21082;-82
2022/08/17 00:19:08;;;;;;;;;;;;;;;18.87;100.00;98793.81;1661777;86;20142;-82
2022/08/17 00:21:49;;;;;;;;;;;;;;;18.88;100.00;98792.04;1662687;86;21179;-82
2022/08/17 00:24:14;;;;;;;;;;;;;;;18.89;100.00;98801.18;1642217;86;20201;-81
2022/08/17 00:26:52;;;;;;;;;;;;;;;18.89;100.00;98799.79;1662103;86;20138;-82
2022/08/17 00:29:21;;;;;;;;;;;;;;;18.90;100.00;98802.77;1641280;86;20134;-81
2022/08/17 00:31:56;;;;;;;;;;;;;;;18.90;100.00;98792.45;1642661;86;20127;-82
2022/08/17 00:34:24;;;;;;;;;;;;;;;18.91;100.00;98794.04;1661907;86;21170;-82
2022/08/17 00:36:56;;;;;;;;;;;;;;;18.90;100.00;98792.45;1663049;86;20118;-82
2022/08/17 00:39:28;;;;;;;;;;;;;;;18.90;100.00;98786.88;1662471;86;20134;-83
2022/08/17 00:41:54;;;;;;;;;;;;;;;18.90;100.00;98791.05;1642434;85;20155;-82
2022/08/17 00:44:25;;;;;;;;;;;;;;;18.91;100.00;98798.80;1660246;86;20142;-82
2022/08/17 00:46:57;;;;;;;;;;;;;;;18.89;100.00;98788.66;1663227;86;21847;-81
2022/08/17 00:49:25;;;;;;;;;;;;;;;18.87;100.00;98793.81;1634511;86;20118;-82
2022/08/17 00:51:58;;;;;;;;;;;;;;;18.85;100.00;98783.08;1665162;86;20155;-82
2022/08/17 00:54:31;;;;;;;;;;;;;;;18.84;100.00;98789.03;1667489;86;20186;-81
2022/08/17 00:57:05;;;;;;;;;;;;;;;18.82;100.00;98784.45;1666605;86;20174;-80
2022/08/17 00:59:43;;;;;;;;;;;;;;;18.80;100.00;98791.20;1667149;86;21230;-80
2022/08/17 01:02:22;;;;;;;;;;;;;;;18.79;100.00;98785.44;1667622;86;20178;-80
2022/08/17 01:04:53;;;;;;;;;;;;;;;18.78;100.00;98783.84;1640577;86;20460;-78
2022/08/17 01:07:26;;;;;;;;;;;;;;;18.79;100.00;98786.03;1667760;86;20118;-78
2022/08/17 01:09:58;;;;;;;;;;;;;;;18.81;100.00;98780.87;1664096;86;20130;-78
2022/08/17 01:12:29;;;;;;;;;;;;;;;18.81;100.00;98786.44;1640129;86;20147;-78
2022/08/17 01:14:58;;;;;;;;;;;;;;;18.81;100.00;98783.66;1667544;86;20126;-77
2022/08/17 01:17:29;;;;;;;;;;;;;;;18.83;100.00;98781.28;1667137;84;20186;-80
2022/08/17 01:19:59;;;;;;;;;;;;;;;18.82;100.00;98769.16;1658820;86;20464;-78
2022/08/17 01:22:33;;;;;;;;;;;;;;;18.80;100.00;98770.34;1667077;86;20150;-78
2022/08/17 01:25:02;;;;;;;;;;;;;;;18.79;100.00;98770.73;1666953;86;21112;-78
2022/08/17 01:27:29;;;;;;;;;;;;;;;18.77;100.00;98761.98;1666356;86;20445;-78
2022/08/17 01:29:58;;;;;;;;;;;;;;;18.75;100.00;98757.41;1666753;86;20229;-86
2022/08/17 01:32:27;;;;;;;;;;;;;;;18.72;100.00;98763.75;1640639;86;20473;-87
2022/08/17 01:35:01;;;;;;;;;;;;;;;18.68;100.00;98769.28;1671545;84;20128;-86
2022/08/17 01:37:36;;;;;;;;;;;;;;;18.66;100.00;98769.47;1680653;84;21299;-86
2022/08/17 01:40:17;;;;;;;;;;;;;;;18.61;100.00;98767.05;1694687;84;20450;-85
2022/08/17 01:42:57;;;;;;;;;;;;;;;18.59;100.00;98769.39;1667921;84;32777;-82
2022/08/17 01:45:30;;;;;;;;;;;;;;;18.54;100.00;98768.37;1694540;84;20177;-82
2022/08/17 01:47:59;;;;;;;;;;;;;;;18.51;100.00;98767.16;1694627;84;20132;-81
2022/08/17 01:50:29;;;;;;;;;;;;;;;18.48;100.00;98763.17;1694908;84;21551;-79
2022/08/17 01:52:59;;;;;;;;;;;;;;;18.46;100.00;98765.57;1695284;84;21504;-79
2022/08/17 01:55:45;;;;;;;;;;;;;;;18.41;100.00;98771.49;1694577;84;20151;-79
2022/08/17 01:58:00;;;;;;;;;;;;;;;18.37;100.00;98768.48;1690072;84;20155;-79
2022/08/17 02:00:37;;;;;;;;;;;;;;;18.32;100.00;98761.89;1667244;84;20131;-79
2022/08/17 02:03:07;;;;;;;;;;;;;;;18.28;100.00;98759.09;1694635;84;21169;-80
2022/08/17 02:05:34;;;;;;;;;;;;;;;18.24;100.00;98760.25;1694707;84;20152;-84
2022/08/17 02:08:03;;;;;;;;;;;;;;;18.20;100.00;98758.03;1695390;84;20479;-85
2022/08/17 02:10:37;;;;;;;;;;;;;;;18.17;100.00;98759.60;1668100;84;20483;-83
2022/08/17 02:13:05;;;;;;;;;;;;;;;18.14;100.00;98758.39;1695254;84;20216;-80
2022/08/17 02:15:34;;;;;;;;;;;;;;;18.11;100.00;98755.59;1694365;84;21197;-79
2022/08/17 02:18:04;;;;;;;;;;;;;;;18.08;100.00;98757.74;1667762;84;20116;-81
2022/08/17 02:20:37;;;;;;;;;;;;;;;18.05;100.00;98755.14;1695122;84;20152;-81
2022/08/17 02:23:14;;;;;;;;;;;;;;;18.03;100.00;98752.55;1694946;84;20144;-85
2022/08/17 02:25:42;;;;;;;;;;;;;;;18.00;100.00;98748.55;1667005;84;20148;-81
2022/08/17 02:28:14;;;;;;;;;;;;;;;17.97;100.00;98748.52;1694987;83;21813;-83
2022/08/17 02:30:42;;;;;;;;;;;;;;;17.94;100.00;98751.48;1667840;84;20684;-81
2022/08/17 02:33:14;;;;;;;;;;;;;;;17.91;100.00;98753.63;1694819;84;20190;-85
2022/08/17 02:35:43;;;;;;;;;;;;;;;17.89;100.00;98757.41;1695387;84;20124;-83
2022/08/17 02:38:12;;;;;;;;;;;;;;;17.87;100.00;98753.42;1690734;84;20132;-76
2022/08/17 02:40:47;;;;;;;;;;;;;;;17.87;100.00;98755.61;1694550;84;21782;-77
2022/08/17 02:43:14;;;;;;;;;;;;;;;17.86;100.00;98756.80;1694758;83;20151;-78
2022/08/17 02:45:42;;;;;;;;;;;;;;;17.85;100.00;98754.39;1691343;84;20131;-77
2022/08/17 02:48:09;;;;;;;;;;;;;;;17.84;100.00;98756.97;1695252;84;20180;-74
2022/08/17 02:50:41;;;;;;;;;;;;;;;17.83;100.00;98755.37;1695194;84;20502;-74
2022/08/17 02:53:10;;;;;;;;;;;;;;;17.81;100.00;98756.55;1675540;84;20151;-73
2022/08/17 02:55:40;;;;;;;;;;;;;;;17.80;100.00;98753.56;1697652;84;20128;-75
2022/08/17 02:58:07;;;;;;;;;;;;;;;17.77;100.00;98754.33;1697542;84;20144;-75
2022/08/17 03:00:40;;;;;;;;;;;;;;;17.74;100.00;98755.09;1676297;84;20147;-75
2022/08/17 03:03:08;;;;;;;;;;;;;;;17.73;100.00;98761.03;1700601;83;20239;-75
2022/08/17 03:05:37;;;;;;;;;;;;;;;17.70;100.00;98755.65;1726792;83;21542;-75
2022/08/17 03:08:05;;;;;;;;;;;;;;;17.68;100.00;98766.34;1725979;83;20132;-75
2022/08/17 03:10:35;;;;;;;;;;;;;;;17.66;100.00;98767.31;1722732;83;20115;-75
2022/08/17 03:13:06;;;;;;;;;;;;;;;17.65;100.00;98757.39;1685859;83;20189;-75
2022/08/17 03:15:32;;;;;;;;;;;;;;;17.64;100.00;98764.09;1680963;83;20211;-75
2022/08/17 03:18:02;;;;;;;;;;;;;;;17.62;100.00;98761.48;1667164;84;22025;-76
2022/08/17 03:20:33;;;;;;;;;;;;;;;17.61;100.00;98764.84;1696835;83;20187;-76
2022/08/17 03:23:02;;;;;;;;;;;;;;;17.61;100.00;98767.63;1696410;84;20148;-75
2022/08/17 03:25:32;;;;;;;;;;;;;;;17.60;100.00;98768.80;1696442;84;20162;-76
2022/08/17 03:28:00;;;;;;;;;;;;;;;17.59;100.00;98764.43;1695893;84;20168;-76
2022/08/17 03:30:31;;;;;;;;;;;;;;;17.58;100.00;98768.97;1690168;83;21545;-76
2022/08/17 03:32:57;;;;;;;;;;;;;;;17.57;100.00;98770.16;1697657;83;20175;-75
2022/08/17 03:35:29;;;;;;;;;;;;;;;17.57;100.00;98770.95;1693263;83;20129;-73
2022/08/17 03:38:06;;;;;;;;;;;;;;;17.59;100.00;98770.57;1706467;83;20151;-74
2022/08/17 03:40:34;;;;;;;;;;;;;;;17.59;100.00;98769.98;1705646;83;20089;-73
2022/08/17 03:43:08;;;;;;;;;;;;;;;17.61;100.00;98775.16;1700906;83;21185;-73
2022/08/17 03:56:53;;;;;;;;;;;;;;;17.66;100.00;98770.67;1676531;84;20150;-72
2022/08/17 03:59:20;;;;;;;;;;;;;;;17.68;100.00;98772.48;1691304;84;20129;-73
2022/08/17 04:01:53;;;;;;;;;;;;;;;17.70;100.00;98771.51;1693470;84;20119;-73
2022/08/17 04:04:22;;;;;;;;;;;;;;;17.71;100.00;98775.88;1697774;83;20172;-75
2022/08/17 04:06:53;;;;;;;;;;;;;;;17.73;100.00;98778.48;1688559;83;20953;-74
2022/08/17 04:09:33;;;;;;;;;;;;;;;17.77;100.00;98776.54;1697433;84;21157;-74
2022/08/17 04:11:59;;;;;;;;;;;;;;;17.82;100.00;98771.23;1698027;84;20144;-82
2022/08/17 04:14:26;;;;;;;;;;;;;;;17.85;100.00;98763.52;1669230;84;20161;-78
2022/08/17 04:16:54;;;;;;;;;;;;;;;17.89;100.00;98763.55;1647935;85;20147;-84
2022/08/17 04:19:21;;;;;;;;;;;;;;;17.91;100.00;98765.36;1668472;86;20457;-76
2022/08/17 04:21:54;;;;;;;;;;;;;;;17.93;100.00;98757.41;1647787;86;20598;-76
2022/08/17 04:24:22;;;;;;;;;;;;;;;17.96;100.00;98760.81;1668354;86;20159;-76
2022/08/17 04:26:48;;;;;;;;;;;;;;;18.02;100.00;98746.78;1697391;84;20207;-76
2022/08/17 04:29:16;;;;;;;;;;;;;;;18.07;100.00;98748.61;1674720;84;20152;-77
2022/08/17 04:31:50;;;;;;;;;;;;;;;18.11;100.00;98747.25;1697823;84;20147;-77
2022/08/17 04:34:18;;;;;;;;;;;;;;;18.12;100.00;98746.07;1697764;84;21863;-76
2022/08/17 04:36:52;;;;;;;;;;;;;;;18.18;100.00;98745.13;1692795;84;20495;-79
2022/08/17 04:39:27;;;;;;;;;;;;;;;18.25;100.00;98747.36;1670548;84;20103;-75
2022/08/17 04:42:15;;;;;;;;;;;;;;;18.36;100.00;98744.66;1690551;84;20194;-76
2022/08/17 04:44:40;;;;;;;;;;;;;;;18.47;100.00;98748.30;1690937;84;20151;-76
2022/08/17 04:47:08;;;;;;;;;;;;;;;18.59;100.00;98742.39;1692048;84;21141;-76
2022/08/17 04:49:39;;;;;;;;;;;;;;;18.73;100.00;98740.31;1671059;85;20147;-78
2022/08/17 04:52:06;;;;;;;;;;;;;;;18.88;100.00;98743.97;1691984;85;20119;-72
2022/08/17 04:54:35;;;;;;;;;;;;;;;19.04;100.00;98741.66;1692345;85;20087;-70
2022/08/17 04:57:08;;;;;;;;;;;;;;;19.17;100.00;98743.46;1691969;84;20087;-71
2022/08/17 04:59:38;;;;;;;;;;;;;;;19.32;100.00;98742.31;1692372;85;21274;-69
2022/08/17 05:02:09;;;;;;;;;;;;;;;19.43;100.00;98739.77;1692229;85;20297;-69
2022/08/17 05:04:40;;;;;;;;;;;;;;;19.59;100.00;98739.44;1678907;85;20428;-70
2022/08/17 05:07:07;;;;;;;;;;;;;;;19.70;100.00;98739.42;1659932;86;20411;-75
2022/08/17 05:09:53;;;;;;;;;;;;;;;19.81;100.00;98739.43;1659455;86;20096;-75
2022/08/17 05:12:12;;;;;;;;;;;;;;;19.89;100.00;98741.83;1637109;87;21103;-72
2022/08/17 05:14:38;;;;;;;;;;;;;;;19.95;100.00;98740.84;1637939;87;20159;-73
2022/08/17 05:17:05;;;;;;;;;;;;;;;20.06;100.00;98740.24;1656112;86;20122;-76
2022/08/17 05:19:31;;;;;;;;;;;;;;;20.17;100.00;98743.02;1666437;86;20097;-76
2022/08/17 05:22:04;;;;;;;;;;;;;;;20.27;100.00;98749.16;1665750;86;20150;-77
2022/08/17 05:24:38;;;;;;;;;;;;;;;20.38;100.00;98751.37;1666915;86;21172;-79
2022/08/17 05:27:05;;;;;;;;;;;;;;;20.49;100.00;98755.53;1666220;86;20089;-75
2022/08/17 05:29:38;;;;;;;;;;;;;;;20.59;100.00;98764.48;1666262;86;20154;-73
2022/08/17 05:32:21;;;;;;;;;;;;;;;20.67;100.00;98766.05;1636720;86;20472;-78
2022/08/17 05:34:45;;;;;;;;;;;;;;;20.78;100.00;98768.22;1665417;86;20145;-76
2022/08/17 05:37:22;;;;;;;;;;;;;;;20.92;100.00;98768.75;1666140;86;20721;-72
2022/08/17 05:39:43;;;;;;;;;;;;;;;21.06;100.00;98768.70;1661886;86;20174;-74
2022/08/17 05:42:13;;;;;;;;;;;;;;;21.20;100.00;98767.85;1666191;86;20093;-75
2022/08/17 05:44:38;;;;;;;;;;;;;;;21.32;100.00;98773.81;1666038;86;20127;-72
2022/08/17 05:47:04;;;;;;;;;;;;;;;21.45;100.00;98767.73;1667106;86;20424;-72
2022/08/17 05:49:33;;;;;;;;;;;;;;;21.62;100.00;98764.05;1666724;86;21159;-75
2022/08/17 05:52:32;;;;;;;;;;;;;;;21.70;100.00;98769.18;1667655;84;20537;-80
2022/08/17 05:55:06;;;;;;;;;;;;;;;21.68;100.00;98768.80;1696182;83;20132;-77
2022/08/17 05:57:44;;;;;;;;;;;;;;;21.67;100.00;98772.80;1665278;84;20196;-73
2022/08/17 06:00:33;;;;;;;;;;;;;;;21.71;100.00;98775.56;1693297;84;20195;-73
2022/08/17 06:03:24;;;;;;;;;;;;;;;21.77;100.00;98774.53;1674078;84;20399;-77
2022/08/17 06:06:08;;;;;;;;;;;;;;;21.83;100.00;98786.26;1695390;84;20148;-77
2022/08/17 06:08:56;;;;;;;;;;;;;;;21.82;100.00;98785.27;1696523;84;20286;-76
2022/08/17 06:11:58;;;;;;;;;;;;;;;21.89;100.00;98788.02;1674719;83;20184;-76
2022/08/17 06:14:51;;;;;;;;;;;;;;;22.05;100.00;98787.70;1694930;84;20478;-81
2022/08/17 06:17:21;;;;;;;;;;;;;;;22.19;100.00;98784.61;1672529;84;20152;-77
2022/08/17 06:19:58;;;;;;;;;;;;;;;22.25;100.00;98780.16;1672344;84;20115;-77
2022/08/17 06:22:33;;;;;;;;;;;;;;;22.38;100.00;98776.45;1693725;84;20148;-80
2022/08/17 06:25:06;;;;;;;;;;;;;;;22.53;100.00;98779.88;1693631;84;20152;-71
2022/08/17 06:27:44;;;;;;;;;;;;;;;22.66;100.00;98782.34;1671965;84;20147;-72
2022/08/17 06:30:25;;;;;;;;;;;;;;;22.82;100.00;98777.62;1694790;84;21827;-72
2022/08/17 06:32:53;;;;;;;;;;;;;;;22.90;100.00;98779.13;1694580;84;20128;-76
2022/08/17 06:35:41;;;;;;;;;;;;;;;22.95;100.00;98780.68;1694772;84;20152;-74
2022/08/17 06:38:31;;;;;;;;;;;;;;;22.98;100.00;98783.44;1694184;84;20127;-81
2022/08/17 06:41:04;;;;;;;;;;;;;;;23.09;99.59;98779.12;1689000;84;20466;-75
2022/08/17 06:43:57;;;;;;;;;;;;;;;23.22;100.00;98780.73;1694407;84;21060;-80
2022/08/17 06:46:31;;;;;;;;;;;;;;;23.47;100.00;98779.81;1694425;84;20116;-77
2022/08/17 06:49:07;;;;;;;;;;;;;;;23.70;100.00;98780.50;1694010;84;20446;-80
2022/08/17 06:51:42;;;;;;;;;;;;;;;23.97;98.82;98779.09;1694390;84;20116;-74
2022/08/17 06:54:27;;;;;;;;;;;;;;;24.19;98.89;98776.75;1696030;83;20144;-75
2022/08/17 06:57:04;;;;;;;;;;;;;;;24.42;96.91;98780.97;1656391;85;21247;-74
2022/08/17 06:59:36;;;;;;;;;;;;;;;24.63;94.80;98782.61;1654062;86;20126;-73
2022/08/17 07:02:08;;;;;;;;;;;;;;;24.76;93.34;98783.57;1665779;86;20130;-73
2022/08/17 07:04:38;;;;;;;;;;;;;;;24.82;91.12;98785.27;1665448;86;20102;-73
2022/08/17 07:09:58;;;;;;;;;;;;;;;24.76;90.61;98789.18;1654069;86;21186;-78
2022/08/17 07:12:32;;;;;;;;;;;;;;;24.74;89.13;98787.41;1642472;86;20128;-73
2022/08/17 07:15:04;;;;;;;;;;;;;;;24.77;87.33;98792.78;1639170;87;20120;-76
2022/08/17 07:17:35;;;;;;;;;;;;;;;24.82;86.80;98786.06;1638936;87;20125;-77
2022/08/17 07:20:09;;;;;;;;;;;;;;;24.88;87.40;98789.13;1643841;85;20097;-72
2022/08/17 07:22:59;;;;;;;;;;;;;;;24.92;86.62;98794.86;1649927;86;22836;-74
2022/08/17 07:25:23;;;;;;;;;;;;;;;24.95;88.17;98794.61;1638626;87;20106;-79
2022/08/17 07:27:51;;;;;;;;;;;;;;;24.95;86.53;98796.02;1642450;86;20182;-83
2022/08/17 07:30:24;;;;;;;;;;;;;;;24.86;87.80;98792.98;1626050;86;20128;-81
2022/08/17 07:32:56;;;;;;;;;;;;;;;24.78;88.63;98792.35;1672186;84;20081;-80
2022/08/17 07:35:43;;;;;;;;;;;;;;;24.74;88.66;98784.61;1679039;84;21148;-82
2022/08/17 07:38:28;;;;;;;;;;;;;;;24.73;90.10;98790.04;1679206;84;20161;-74
2022/08/17 07:41:02;;;;;;;;;;;;;;;24.78;89.61;98788.14;1667699;84;20150;-82
2022/08/17 07:43:42;;;;;;;;;;;;;;;24.89;88.36;98790.11;1674255;83;20131;-82
2022/08/17 07:49:13;;;;;;;;;;;;;;;25.33;88.46;98786.05;1674750;84;21158;-71
2022/08/17 07:51:49;;;;;;;;;;;;;;;25.74;86.85;98779.14;1678851;84;20127;-75
2022/08/17 07:54:22;;;;;;;;;;;;;;;26.07;84.66;98780.57;1675099;85;20146;-76
2022/08/17 07:57:02;;;;;;;;;;;;;;;26.22;83.93;98781.81;1684714;83;20432;-71
2022/08/17 07:59:33;;;;;;;;;;;;;;;26.22;80.64;98781.19;1715857;83;20090;-70
2022/08/17 08:02:37;;;;;;;;;;;;;;;26.22;80.67;98780.40;1716690;83;21216;-70
2022/08/17 08:05:08;;;;;;;;;;;;;;;26.30;81.24;98781.19;1715984;83;20090;-71
2022/08/17 08:07:56;;;;;;;;;;;;;;;26.67;82.26;98771.22;1716569;83;20078;-72
2022/08/17 08:10:37;;;;;;;;;;;;;;;27.04;79.57;98774.06;1716471;83;20122;-70
2022/08/17 08:13:10;;;;;;;;;;;;;;;27.36;78.13;98776.72;1687744;84;20120;-71
2022/08/17 08:15:47;;;;;;;;;;;;;;;27.67;75.89;98779.85;1677128;85;21180;-70
2022/08/17 08:18:29;;;;;;;;;;;;;;;27.82;73.49;98780.17;1687624;85;20216;-70
2022/08/17 08:21:12;;;;;;;;;;;;;;;27.69;72.53;98776.58;1646153;86;20106;-71
2022/08/17 08:24:03;;;;;;;;;;;;;;;27.44;74.38;98782.94;1660202;86;20477;-69
2022/08/17 08:26:54;;;;;;;;;;;;;;;27.18;75.51;98779.27;1659286;86;20147;-71
2022/08/17 08:29:46;;;;;;;;;;;;;;;26.93;77.02;98778.55;1630185;86;21589;-70
2022/08/17 08:32:33;;;;;;;;;;;;;;;26.65;77.47;98776.67;1660102;86;20119;-68
2022/08/17 08:35:09;;;;;;;;;;;;;;;26.36;78.14;98778.67;1626925;86;20130;-69
2022/08/17 08:37:54;;;;;;;;;;;;;;;26.09;80.22;98785.93;1660305;86;20210;-72
2022/08/17 08:40:37;;;;;;;;;;;;;;;25.93;81.46;98783.92;1660378;86;20110;-75
2022/08/17 08:43:11;;;;;;;;;;;;;;;25.95;82.06;98777.86;1659975;85;21249;-69
2022/08/17 08:46:02;;;;;;;;;;;;;;;26.10;82.85;98780.48;1643369;86;20107;-70
2022/08/17 08:48:55;;;;;;;;;;;;;;;26.34;81.02;98778.94;1660065;86;20167;-69
2022/08/17 08:51:59;;;;;;;;;;;;;;;26.81;80.80;98771.63;1638680;86;20186;-71
2022/08/17 08:54:45;;;;;;;;;;;;;;;27.39;76.62;98776.45;1656326;85;20201;-73
2022/08/17 08:57:17;;;;;;;;;;;;;;;27.64;76.14;98774.32;1663817;85;20132;-71
2022/08/17 09:00:13;;;;;;;;;;;;;;;27.71;74.15;98774.10;1664093;84;20116;-71
2022/08/17 09:02:53;;;;;;;;;;;;;;;27.72;73.26;98773.66;1685965;85;20459;-82
2022/08/17 09:05:26;;;;;;;;;;;;;;;27.61;73.14;98773.98;1686268;85;20474;-81
2022/08/17 09:08:06;;;;;;;;;;;;;;;27.48;72.45;98771.73;1686075;85;20179;-83
2022/08/17 09:11:05;;;;;;;;;;;;;;;27.55;73.86;98777.16;1681458;84;21165;-79
2022/08/17 09:13:44;;;;;;;;;;;;;;;27.71;73.40;98774.10;1673522;84;20175;-83
2022/08/17 09:16:34;;;;;;;;;;;;;;;27.91;72.17;98776.06;1674530;84;20604;-81
2022/08/17 09:19:14;;;;;;;;;;;;;;;28.02;72.30;98773.69;1664524;85;20219;-82
2022/08/17 09:21:44;;;;;;;;;;;;;;;27.91;70.65;98768.39;1685796;85;20117;-82
2022/08/17 09:24:14;;;;;;;;;;;;;;;27.73;71.31;98775.20;1686882;85;21134;-81
2022/08/17 09:27:10;;;;;;;;;;;;;;;27.54;71.75;98771.97;1687289;85;20265;-84
2022/08/17 09:29:39;;;;;;;;;;;;;;;27.40;72.41;98764.73;1685843;85;20164;-77
2022/08/17 09:32:20;;;;;;;;;;;;;;;27.52;71.66;98767.39;1686272;85;20480;-77
2022/08/17 09:34:55;;;;;;;;;;;;;;;27.55;71.96;98760.86;1662428;85;20132;-77
2022/08/17 09:37:31;;;;;;;;;;;;;;;27.55;71.26;98765.87;1682088;83;21168;-80
2022/08/17 09:40:17;;;;;;;;;;;;;;;27.42;70.69;98759.43;1675042;85;20156;-78
2022/08/17 09:42:48;;;;;;;;;;;;;;;27.37;71.05;98764.21;1686708;83;20163;-82
2022/08/17 09:45:19;;;;;;;;;;;;;;;27.40;71.90;98760.50;1687434;85;20159;-76
2022/08/17 09:48:01;;;;;;;;;;;;;;;27.44;71.31;98755.55;1684131;84;20208;-76
2022/08/17 09:50:44;;;;;;;;;;;;;;;27.68;70.58;98747.59;1680922;84;21104;-76
2022/08/17 09:53:13;;;;;;;;;;;;;;;27.85;69.17;98749.66;1683680;83;20158;-74
2022/08/17 09:55:48;;;;;;;;;;;;;;;28.12;69.48;98747.16;1713172;83;20172;-75
2022/08/17 09:58:26;;;;;;;;;;;;;;;28.48;67.92;98745.34;1713322;83;20189;-75
2022/08/17 10:01:01;;;;;;;;;;;;;;;28.90;65.83;98743.05;1713808;83;20102;-75
2022/08/17 10:03:41;;;;;;;;;;;;;;;29.19;64.14;98740.58;1712859;83;21175;-76
2022/08/17 10:06:19;;;;;;;;;;;;;;;29.37;63.49;98740.70;1713914;83;20129;-77
2022/08/17 10:08:52;;;;;;;;;;;;;;;29.50;61.59;98739.20;1689282;83;20471;-76
2022/08/17 10:14:34;;;;;;;;;;;;;;;29.40;61.06;98741.19;1659703;86;20309;-77
2022/08/17 10:17:35;;;;;;;;;;;;;;;29.28;60.34;98751.16;1644943;86;22314;-78
2022/08/17 10:20:28;;;;;;;;;;;;;;;28.89;62.34;98761.86;1658791;86;20163;-78
2022/08/17 10:26:14;;;;;;;;;;;;;;;28.29;63.77;98759.75;1637350;86;20113;-83
2022/08/17 10:28:52;;;;;;;;;;;;;;;28.12;64.21;98760.48;1643111;86;20163;-75
2022/08/17 10:31:27;;;;;;;;;;;;;;;28.16;64.09;98754.88;1674383;83;21210;-76
2022/08/17 10:34:27;;;;;;;;;;;;;;;28.37;65.41;98744.91;1687663;85;20144;-76
2022/08/17 10:37:19;;;;;;;;;;;;;;;28.92;62.87;98749.02;1665941;85;20152;-76
2022/08/17 10:39:49;;;;;;;;;;;;;;;29.58;62.17;98746.94;1687756;85;20163;-76
2022/08/17 10:42:24;;;;;;;;;;;;;;;29.96;59.78;98747.89;1665374;85;20200;-76
2022/08/17 10:45:00;;;;;;;;;;;;;;;29.84;58.25;98748.95;1687539;85;21844;-76
2022/08/17 10:48:08;;;;;;;;;;;;;;;29.41;57.67;98748.45;1686780;85;20231;-81
2022/08/17 10:50:57;;;;;;;;;;;;;;;28.76;58.85;98750.61;1687616;85;20205;-82
2022/08/17 10:53:39;;;;;;;;;;;;;;;28.14;62.01;98756.58;1687440;85;20157;-81
2022/08/17 10:56:16;;;;;;;;;;;;;;;27.82;64.16;98757.61;1686647;85;20174;-82
2022/08/17 10:58:55;;;;;;;;;;;;;;;27.54;66.00;98757.88;1687487;85;21221;-82
2022/08/17 11:01:35;;;;;;;;;;;;;;;27.34;67.13;98754.45;1687649;85;20136;-80
2022/08/17 11:04:24;;;;;;;;;;;;;;;27.14;68.12;98754.66;1665718;85;20180;-78
2022/08/17 11:07:11;;;;;;;;;;;;;;;26.93;68.09;98750.39;1669063;84;20146;-81
2022/08/17 11:09:48;;;;;;;;;;;;;;;26.73;69.03;98744.11;1685660;85;20179;-82
2022/08/17 11:12:53;;;;;;;;;;;;;;;26.59;70.14;98752.32;1657450;86;20153;-79
2022/08/17 11:15:31;;;;;;;;;;;;;;;26.48;70.84;98749.81;1658249;86;20131;-79
2022/08/17 11:18:19;;;;;;;;;;;;;;;26.35;69.99;98749.57;1659947;86;20171;-75
2022/08/17 11:21:16;;;;;;;;;;;;;;;26.23;71.71;98751.04;1673441;85;20196;-84
2022/08/17 11:23:56;;;;;;;;;;;;;;;26.15;72.84;98745.41;1685390;85;20540;-76
2022/08/17 11:26:28;;;;;;;;;;;;;;;26.07;72.95;98744.80;1686041;85;21104;-81
2022/08/17 11:29:02;;;;;;;;;;;;;;;26.01;73.23;98749.37;1662832;84;20155;-84
2022/08/17 11:31:41;;;;;;;;;;;;;;;25.97;73.20;98743.06;1685213;85;20168;-78
2022/08/17 11:34:15;;;;;;;;;;;;;;;25.93;73.25;98750.80;1685988;85;20116;-77
2022/08/17 11:37:04;;;;;;;;;;;;;;;25.93;74.69;98750.80;1684117;85;20238;-81
2022/08/17 11:39:53;;;;;;;;;;;;;;;25.94;73.90;98736.91;1685848;85;21115;-88
2022/08/17 11:42:44;;;;;;;;;;;;;;;25.95;74.94;98734.28;1661849;85;20171;-73
2022/08/17 11:45:41;;;;;;;;;;;;;;;25.95;75.33;98731.47;1677760;85;20132;-68
2022/08/17 11:51:35;;;;;;;;;;;;;;;25.95;75.14;98738.50;1683736;85;20485;-75
2022/08/17 11:54:13;;;;;;;;;;;;;;;25.92;74.15;98739.38;1678539;83;21279;-76
2022/08/17 11:56:55;;;;;;;;;;;;;;;25.88;74.76;98738.67;1688530;84;20187;-73
2022/08/17 11:59:40;;;;;;;;;;;;;;;25.84;74.02;98744.99;1692796;84;20179;-76
2022/08/17 12:02:33;;;;;;;;;;;;;;;25.82;75.30;98741.83;1692113;84;20120;-73
2022/08/17 12:05:16;;;;;;;;;;;;;;;25.81;76.05;98738.22;1650088;84;20122;-74
2022/08/17 12:07:50;;;;;;;;;;;;;;;25.83;75.57;98736.37;1671621;84;20131;-75
2022/08/17 12:10:16;;;;;;;;;;;;;;;25.86;75.10;98733.48;1681484;83;20245;-73
2022/08/17 12:12:53;;;;;;;;;;;;;;;25.92;75.01;98735.16;1682890;84;20090;-72
2022/08/17 12:15:21;;;;;;;;;;;;;;;26.03;75.84;98741.28;1676498;84;20452;-73
2022/08/17 12:17:52;;;;;;;;;;;;;;;26.20;75.67;98742.08;1678554;83;20151;-72
2022/08/17 12:20:24;;;;;;;;;;;;;;;26.41;74.80;98740.77;1680334;84;21100;-72
2022/08/17 12:23:11;;;;;;;;;;;;;;;26.71;72.32;98740.95;1680222;84;20101;-72
2022/08/17 12:25:45;;;;;;;;;;;;;;;27.20;70.91;98744.39;1693870;84;20198;-73
2022/08/17 12:28:28;;;;;;;;;;;;;;;27.83;70.17;98742.27;1695384;84;20377;-72
2022/08/17 12:31:04;;;;;;;;;;;;;;;28.58;67.05;98743.39;1693359;83;20200;-76
2022/08/17 12:33:34;;;;;;;;;;;;;;;29.30;62.48;98741.59;1690627;84;21133;-74
2022/08/17 12:36:04;;;;;;;;;;;;;;;29.91;59.43;98740.80;1666075;84;20202;-78
2022/08/17 12:38:35;;;;;;;;;;;;;;;30.34;58.38;98745.48;1694316;84;20159;-76
2022/08/17 12:44:01;;;;;;;;;;;;;;;31.13;53.16;98739.41;1661102;85;20102;-72
2022/08/17 12:46:38;;;;;;;;;;;;;;;31.31;51.11;98737.78;1685707;84;21991;-77
2022/08/17 12:49:23;;;;;;;;;;;;;;;31.38;52.73;98736.81;1694780;84;20166;-77
2022/08/17 12:51:50;;;;;;;;;;;;;;;31.54;49.52;98734.25;1694867;84;20152;-76
2022/08/17 12:54:41;;;;;;;;;;;;;;;31.49;51.04;98746.24;1664767;84;20556;-78
2022/08/17 12:57:14;;;;;;;;;;;;;;;31.59;49.74;98737.08;1696969;84;20191;-79
2022/08/17 12:59:45;;;;;;;;;;;;;;;31.56;49.56;98740.87;1697136;84;21212;-77
2022/08/17 13:02:27;;;;;;;;;;;;;;;31.13;47.98;98732.33;1688591;84;20201;-75
2022/08/17 13:04:55;;;;;;;;;;;;;;;30.56;49.80;98739.70;1693348;84;20131;-75
2022/08/17 13:07:27;;;;;;;;;;;;;;;29.90;52.52;98745.67;1658027;85;20476;-75
2022/08/17 13:09:54;;;;;;;;;;;;;;;29.49;54.35;98743.28;1669362;86;20150;-74
2022/08/17 13:12:29;;;;;;;;;;;;;;;29.17;55.89;98741.67;1669445;86;20674;-80
2022/08/17 13:14:56;;;;;;;;;;;;;;;28.93;56.44;98741.34;1669473;86;20118;-75
2022/08/17 13:17:28;;;;;;;;;;;;;;;28.74;57.19;98738.98;1669315;86;20181;-72
2022/08/17 13:19:54;;;;;;;;;;;;;;;28.71;57.64;98742.73;1669421;86;20152;-73
2022/08/17 13:22:24;;;;;;;;;;;;;;;28.87;55.92;98746.81;1669419;86;20153;-74
2022/08/17 13:24:53;;;;;;;;;;;;;;;29.17;56.95;98743.08;1668401;84;21718;-75
2022/08/17 13:27:21;;;;;;;;;;;;;;;29.58;54.01;98741.91;1667783;86;20185;-77
2022/08/17 13:29:52;;;;;;;;;;;;;;;29.80;54.07;98741.86;1667416;86;20202;-77
2022/08/17 13:32:21;;;;;;;;;;;;;;;30.07;53.02;98739.12;1667675;86;20177;-74
2022/08/17 13:34:50;;;;;;;;;;;;;;;30.39;50.04;98739.20;1667765;86;20130;-75
2022/08/17 13:37:27;;;;;;;;;;;;;;;30.62;50.83;98747.73;1667869;86;21077;-71
2022/08/17 13:40:09;;;;;;;;;;;;;;;30.81;49.67;98750.73;1637334;87;20523;-74
2022/08/17 13:42:43;;;;;;;;;;;;;;;31.10;51.31;98747.42;1667739;86;20559;-76
2022/08/17 13:45:50;;;;;;;;;;;;;;;31.63;51.48;98739.11;1667621;86;20181;-73
2022/08/17 13:48:28;;;;;;;;;;;;;;;32.18;49.95;98733.97;1646671;87;20127;-74
2022/08/17 13:50:59;;;;;;;;;;;;;;;32.77;47.85;98742.75;1604086;88;21242;-75
2022/08/17 13:53:28;;;;;;;;;;;;;;;33.07;46.92;98741.52;1602737;89;20288;-75